aviador You're here:

LFLP Decoded Metar

ANNECY in FRANCE
Report Time2018-06-17 23:30:00
UTC Time2018-06-17 23:44:31
Flight Rules vfr VFR
Wind240° at 03 kt
W.Decomp.*RWY 22: 2.8 kt HW 1.0 kt RCW
W.Rank240° ranks 10
Current wind is below 240° avg. (5.2)
Visibility9999 m
Phenomena:N/A
Clouds:Overcast 041 Hf
Expected CloudBase > 1,600 ft AGL from Temp-Dew spread
Ceiling4,100 ft
Temp17°C (ISA +5)
Dew Point13°C (77% RH)
AAT16.8°C
QNH1022 hPa
Density Alt2,011 ft
Elevation1,519 ft
Report Wrong Elevation
Raw Report
METAR LFLP 172330Z AUTO 24003KT 9999 OVC041 17/13 Q1022=

Extra information for LFLP:More info

Metar Taf Metar & Taf Last 4 Metars F.Rules Stats Wind Profile Meteogram Temp Stats Airport Information Weather charts Add Link Nearby VenuesMetar ALERT Operation Metar Decoded Social comments